createdAt,value
2018-09-23T00:00:03.468Z,6.80
2018-09-23T00:02:32.272Z,5.80
2018-09-23T00:05:01.061Z,5.47
2018-09-23T00:07:29.893Z,3.73
2018-09-23T00:09:58.709Z,4.07
2018-09-23T00:12:27.502Z,2.73
2018-09-23T00:14:57.906Z,7.93
2018-09-23T00:17:26.681Z,4.37
2018-09-23T00:19:58.665Z,5.83
2018-09-23T00:22:27.500Z,5.40
2018-09-23T00:24:57.409Z,4.53
2018-09-23T00:27:27.129Z,5.20
2018-09-23T00:29:57.313Z,8.67
2018-09-23T00:32:26.172Z,4.23
2018-09-23T00:34:54.992Z,4.90
2018-09-23T00:37:23.824Z,3.33
2018-09-23T00:39:52.629Z,4.67
2018-09-23T00:42:21.498Z,4.27
2018-09-23T00:44:50.285Z,4.50
2018-09-23T00:47:19.069Z,6.27
2018-09-23T00:49:47.877Z,7.77
2018-09-23T00:52:16.684Z,4.50
2018-09-23T00:54:45.510Z,4.63
2018-09-23T00:57:14.336Z,4.17
2018-09-23T00:59:43.116Z,4.70
2018-09-23T01:02:11.939Z,6.80
2018-09-23T01:04:40.740Z,6.53
2018-09-23T01:07:09.568Z,4.13
2018-09-23T01:09:38.376Z,5.13
2018-09-23T01:12:08.473Z,5.67
2018-09-23T01:14:37.241Z,4.13
2018-09-23T01:17:07.344Z,6.43
2018-09-23T01:19:36.170Z,7.30
2018-09-23T01:22:04.980Z,9.47
2018-09-23T01:24:33.776Z,8.67
2018-09-23T01:27:02.573Z,6.50
2018-09-23T01:29:31.365Z,9.83
2018-09-23T01:32:00.178Z,8.13
2018-09-23T01:34:28.990Z,7.80
2018-09-23T01:36:57.785Z,10.37
2018-09-23T01:39:26.585Z,11.83
2018-09-23T01:41:55.416Z,10.67
2018-09-23T01:44:24.228Z,10.50
2018-09-23T01:46:53.021Z,11.07
2018-09-23T01:49:21.906Z,10.27
2018-09-23T01:51:50.689Z,18.07
2018-09-23T01:54:19.482Z,17.07
2018-09-23T01:56:48.301Z,16.30
2018-09-23T01:59:17.088Z,15.13
2018-09-23T02:01:45.864Z,14.23
2018-09-23T02:04:14.676Z,17.87
2018-09-23T02:06:43.446Z,16.50
2018-09-23T02:09:12.264Z,16.33
2018-09-23T02:11:41.121Z,18.10
2018-09-23T02:14:09.975Z,18.27
2018-09-23T02:16:38.976Z,18.50
2018-09-23T02:19:07.812Z,19.00
2018-09-23T02:21:36.778Z,19.30
2018-09-23T02:24:05.572Z,17.67
2018-09-23T02:26:34.357Z,19.43
2018-09-23T02:29:03.147Z,16.73
2018-09-23T02:31:31.953Z,18.33
2018-09-23T02:34:00.780Z,18.77
2018-09-23T02:36:29.628Z,20.83
2018-09-23T02:38:58.418Z,16.60
2018-09-23T02:41:27.227Z,23.20
2018-09-23T02:43:56.022Z,21.57
2018-09-23T02:46:24.872Z,24.20
2018-09-23T02:48:53.670Z,23.07
2018-09-23T02:51:22.468Z,24.10
2018-09-23T02:53:51.320Z,22.77
2018-09-23T02:56:20.113Z,24.97
2018-09-23T02:58:48.909Z,22.93
2018-09-23T03:01:17.824Z,25.50
2018-09-23T03:03:46.613Z,26.50
2018-09-23T03:06:16.422Z,24.33
2018-09-23T03:08:45.244Z,30.10
2018-09-23T03:11:14.035Z,23.87
2018-09-23T03:13:42.861Z,23.07
2018-09-23T03:16:11.710Z,26.97
2018-09-23T03:18:40.572Z,28.80
2018-09-23T03:21:09.360Z,24.43
2018-09-23T03:23:38.181Z,25.43
2018-09-23T03:26:06.981Z,24.20
2018-09-23T03:28:35.800Z,22.97
2018-09-23T03:31:04.636Z,21.13
2018-09-23T03:33:33.416Z,22.70
2018-09-23T03:36:02.205Z,19.60
2018-09-23T03:38:31.090Z,18.83
2018-09-23T03:40:59.862Z,17.57
2018-09-23T03:43:28.675Z,20.60
2018-09-23T03:45:57.501Z,23.93
2018-09-23T03:48:26.288Z,15.33
2018-09-23T03:50:55.100Z,13.07
2018-09-23T03:53:25.168Z,16.47
2018-09-23T03:55:53.960Z,16.90
2018-09-23T03:58:22.798Z,15.13
2018-09-23T04:00:51.618Z,14.80
2018-09-23T04:03:20.619Z,13.30
2018-09-23T04:05:49.410Z,16.23
2018-09-23T04:08:18.295Z,15.63
2018-09-23T04:10:47.080Z,16.07
2018-09-23T04:13:15.880Z,12.40
2018-09-23T04:15:44.700Z,12.23
2018-09-23T04:18:13.509Z,14.63
2018-09-23T04:20:42.317Z,12.20
2018-09-23T04:23:11.144Z,13.30
2018-09-23T04:25:39.933Z,14.40
2018-09-23T04:28:08.697Z,10.80
2018-09-23T04:30:37.536Z,15.10
2018-09-23T04:33:06.309Z,12.07
2018-09-23T04:35:36.828Z,15.07
2018-09-23T04:38:05.748Z,13.40
2018-09-23T04:40:34.533Z,14.20
2018-09-23T04:43:03.740Z,15.10
2018-09-23T04:45:32.569Z,13.70
2018-09-23T04:48:01.453Z,12.17
2018-09-23T04:50:30.252Z,16.33
2018-09-23T04:52:59.049Z,13.93
2018-09-23T04:55:27.929Z,15.10
2018-09-23T04:57:56.647Z,13.80
2018-09-23T05:00:25.535Z,14.33
2018-09-23T05:02:54.330Z,16.03
2018-09-23T05:05:23.120Z,15.47
2018-09-23T05:07:51.936Z,15.77
2018-09-23T05:10:21.169Z,15.53
2018-09-23T05:12:50.072Z,13.50
2018-09-23T05:15:18.872Z,17.50
2018-09-23T05:17:48.348Z,13.10
2018-09-23T05:20:17.152Z,14.93
2018-09-23T05:22:47.442Z,19.37
2018-09-23T05:25:16.282Z,14.43
2018-09-23T05:27:45.152Z,13.90
2018-09-23T05:30:15.340Z,16.80
2018-09-23T05:32:44.165Z,12.03
2018-09-23T05:35:12.971Z,17.80
2018-09-23T05:37:41.792Z,17.53
2018-09-23T05:40:10.600Z,16.83
2018-09-23T05:42:39.430Z,18.67
2018-09-23T05:45:08.952Z,19.73
2018-09-23T05:47:37.764Z,19.80
2018-09-23T05:50:06.881Z,20.53
2018-09-23T05:52:35.684Z,18.53
2018-09-23T05:55:04.514Z,13.47
2018-09-23T05:57:33.288Z,13.23
2018-09-23T06:00:02.168Z,12.40
2018-09-23T06:02:31.022Z,9.60
2018-09-23T06:04:59.884Z,8.03
2018-09-23T06:07:28.712Z,5.30
2018-09-23T06:09:57.508Z,5.47
2018-09-23T06:12:26.276Z,5.20
2018-09-23T06:14:55.437Z,4.03
2018-09-23T06:17:24.253Z,4.00
2018-09-23T06:19:53.096Z,4.23
2018-09-23T06:22:22.112Z,3.70
2018-09-23T06:24:50.900Z,3.80
2018-09-23T06:27:19.700Z,3.73
2018-09-23T06:29:48.475Z,5.97
2018-09-23T06:32:17.269Z,4.00
2018-09-23T06:34:46.093Z,3.77
2018-09-23T06:37:14.885Z,4.90
2018-09-23T06:39:43.678Z,4.33
2018-09-23T06:42:12.556Z,4.97
2018-09-23T06:44:41.372Z,3.33
2018-09-23T06:47:10.172Z,4.73
2018-09-23T06:49:38.950Z,4.00
2018-09-23T06:54:43.000Z,4.33
2018-09-23T06:57:11.889Z,6.73
2018-09-23T06:59:40.689Z,6.53
2018-09-23T07:02:09.508Z,6.37
2018-09-23T07:04:38.495Z,5.20
2018-09-23T07:07:07.314Z,7.00
2018-09-23T07:09:36.304Z,5.57
2018-09-23T07:12:05.152Z,6.07
2018-09-23T07:14:33.922Z,6.33
2018-09-23T07:17:03.152Z,5.23
2018-09-23T07:19:32.021Z,6.63
2018-09-23T07:22:04.522Z,5.20
2018-09-23T07:24:33.292Z,6.13
2018-09-23T07:27:02.823Z,6.27
2018-09-23T07:29:31.604Z,6.90
2018-09-23T07:32:00.398Z,8.50
2018-09-23T07:34:31.007Z,8.07
2018-09-23T07:36:59.928Z,9.30
2018-09-23T07:39:28.670Z,6.10
2018-09-23T07:41:57.457Z,7.47
2018-09-23T07:44:26.296Z,7.03
2018-09-23T07:46:55.144Z,4.17
2018-09-23T07:49:24.024Z,5.73
2018-09-23T07:51:52.787Z,3.37
2018-09-23T07:54:21.616Z,3.20
2018-09-23T07:56:50.478Z,5.70
2018-09-23T07:59:19.504Z,2.90
2018-09-23T08:01:48.368Z,2.87
2018-09-23T08:04:17.148Z,3.50
2018-09-23T08:06:45.940Z,2.97
2018-09-23T08:09:14.824Z,2.37
2018-09-23T08:11:43.595Z,2.80
2018-09-23T08:14:12.785Z,2.70
2018-09-23T08:16:41.269Z,1.87
2018-09-23T08:19:10.075Z,3.10
2018-09-23T08:21:38.905Z,1.97
2018-09-23T08:24:08.652Z,1.10
2018-09-23T08:26:37.680Z,3.37
2018-09-23T08:29:07.230Z,1.37
2018-09-23T08:31:36.004Z,0.60
2018-09-23T08:34:04.904Z,2.27
2018-09-23T08:36:34.196Z,1.60
2018-09-23T08:39:03.235Z,0.50
2018-09-23T08:41:32.039Z,1.80
2018-09-23T08:44:00.826Z,0.50
2018-09-23T08:46:29.602Z,0.40
2018-09-23T08:48:58.424Z,0.30
2018-09-23T08:51:27.225Z,0.30
2018-09-23T08:53:56.008Z,0.40
2018-09-23T08:56:24.773Z,0.27
2018-09-23T08:58:53.576Z,0.20
2018-09-23T09:01:22.357Z,0.40
2018-09-23T09:03:51.202Z,1.07
2018-09-23T09:06:19.952Z,0.53
2018-09-23T09:08:48.767Z,0.83
2018-09-23T09:11:17.547Z,0.50
2018-09-23T09:13:46.387Z,0.20
2018-09-23T09:16:15.468Z,0.30
2018-09-23T09:18:44.330Z,0.30
2018-09-23T09:21:14.250Z,0.20
2018-09-23T09:23:43.089Z,0.30
2018-09-23T09:26:11.852Z,0.50
2018-09-23T09:28:40.702Z,0.30
2018-09-23T09:31:09.557Z,0.20
2018-09-23T09:33:38.338Z,0.63
2018-09-23T09:36:07.096Z,0.83
2018-09-23T09:38:35.921Z,1.40
2018-09-23T09:41:04.744Z,0.50
2018-09-23T09:43:33.573Z,0.60
2018-09-23T09:46:02.367Z,1.13
2018-09-23T09:48:31.270Z,0.80
2018-09-23T09:51:00.101Z,1.00
2018-09-23T09:53:28.906Z,1.13
2018-09-23T09:55:57.668Z,0.87
2018-09-23T09:58:26.481Z,0.70
2018-09-23T10:00:55.300Z,1.33
2018-09-23T10:03:24.081Z,0.97
2018-09-23T10:05:52.876Z,2.20
2018-09-23T10:08:21.658Z,0.80
2018-09-23T10:10:50.432Z,0.93
2018-09-23T10:13:19.247Z,1.43
2018-09-23T10:15:48.037Z,1.23
2018-09-23T10:18:17.189Z,1.97
2018-09-23T10:20:45.985Z,0.50
2018-09-23T10:23:14.833Z,1.57
2018-09-23T10:25:43.605Z,1.60
2018-09-23T10:28:12.399Z,1.77
2018-09-23T10:30:41.184Z,0.60
2018-09-23T10:33:09.960Z,1.00
2018-09-23T10:35:38.764Z,1.30
2018-09-23T10:38:07.579Z,1.73
2018-09-23T10:40:36.364Z,1.33
2018-09-23T10:43:05.165Z,2.27
2018-09-23T10:45:33.980Z,2.47
2018-09-23T10:48:02.766Z,0.73
2018-09-23T10:50:31.590Z,1.13
2018-09-23T10:53:00.418Z,1.43
2018-09-23T10:55:29.256Z,1.63
2018-09-23T10:57:58.053Z,3.20
2018-09-23T11:00:26.846Z,0.87
2018-09-23T11:02:55.708Z,0.80
2018-09-23T11:05:24.548Z,0.80
2018-09-23T11:07:53.321Z,2.33
2018-09-23T11:10:22.184Z,6.30
2018-09-23T11:12:51.515Z,2.07
2018-09-23T11:15:21.050Z,2.53
2018-09-23T11:17:49.854Z,2.37
2018-09-23T11:20:18.666Z,2.00
2018-09-23T11:22:47.483Z,3.70
2018-09-23T11:25:16.272Z,2.70
2018-09-23T11:27:45.110Z,4.23
2018-09-23T11:30:13.876Z,3.20
2018-09-23T11:32:42.661Z,4.67
2018-09-23T11:35:11.526Z,6.07
2018-09-23T11:37:40.297Z,3.37
2018-09-23T11:40:09.876Z,2.83
2018-09-23T11:42:38.809Z,4.57
2018-09-23T11:45:07.686Z,2.23
2018-09-23T11:47:36.512Z,3.20
2018-09-23T11:50:05.440Z,3.37
2018-09-23T11:52:34.903Z,3.83
2018-09-23T11:55:03.744Z,2.77
2018-09-23T11:57:33.824Z,3.23
2018-09-23T12:00:03.317Z,2.87
2018-09-23T12:02:32.131Z,2.43
2018-09-23T12:05:00.933Z,4.77
2018-09-23T12:07:29.761Z,3.00
2018-09-23T12:09:58.548Z,2.00
2018-09-23T12:12:27.709Z,2.97
2018-09-23T12:14:56.541Z,1.70
2018-09-23T12:17:25.356Z,5.17
2018-09-23T12:19:54.225Z,1.87
2018-09-23T12:22:23.057Z,2.30
2018-09-23T12:24:51.901Z,2.57
2018-09-23T12:27:20.753Z,2.53
2018-09-23T12:29:49.608Z,1.70
2018-09-23T12:32:18.393Z,1.80
2018-09-23T12:34:47.285Z,3.80
2018-09-23T12:37:16.088Z,2.40
2018-09-23T12:39:44.983Z,6.10
2018-09-23T12:42:13.731Z,1.40
2018-09-23T12:44:42.557Z,1.70
2018-09-23T12:47:11.338Z,1.63
2018-09-23T12:49:40.228Z,1.83
2018-09-23T12:52:09.048Z,3.70
2018-09-23T12:54:37.910Z,2.27
2018-09-23T12:57:06.716Z,4.40
2018-09-23T12:59:35.698Z,3.67
2018-09-23T13:02:04.531Z,5.47
2018-09-23T13:04:33.628Z,3.43
2018-09-23T13:07:02.456Z,1.37
2018-09-23T13:09:31.382Z,5.47
2018-09-23T13:12:00.168Z,4.60
2018-09-23T13:14:28.931Z,2.30
2018-09-23T13:16:57.729Z,2.20
2018-09-23T13:19:26.673Z,3.37
2018-09-23T13:21:55.493Z,3.83
2018-09-23T13:24:24.314Z,5.83
2018-09-23T13:26:53.146Z,3.13
2018-09-23T13:29:21.992Z,3.07
2018-09-23T13:31:50.857Z,1.20
2018-09-23T13:34:19.651Z,5.40
2018-09-23T13:36:48.598Z,3.60
2018-09-23T13:39:17.397Z,2.73
2018-09-23T13:41:46.246Z,3.10
2018-09-23T13:44:15.105Z,3.30
2018-09-23T13:46:44.133Z,2.13
2018-09-23T13:49:12.966Z,1.93
2018-09-23T13:51:42.605Z,1.77
2018-09-23T13:54:11.637Z,3.20
2018-09-23T13:56:41.437Z,2.73
2018-09-23T13:59:10.557Z,3.40
2018-09-23T14:01:39.596Z,1.67
2018-09-23T14:04:09.922Z,1.30
2018-09-23T14:06:38.916Z,2.13
2018-09-23T14:09:07.911Z,1.87
2018-09-23T14:11:36.936Z,1.00
2018-09-23T14:14:05.932Z,1.00
2018-09-23T14:16:34.921Z,1.57
2018-09-23T14:19:04.039Z,2.40
2018-09-23T14:21:33.188Z,1.80
2018-09-23T14:24:02.197Z,1.10
2018-09-23T14:26:31.455Z,1.67
2018-09-23T14:29:00.381Z,3.97
2018-09-23T14:31:29.337Z,3.33
2018-09-23T14:33:58.227Z,1.77
2018-09-23T14:36:27.138Z,1.40
2018-09-23T14:38:55.923Z,2.97
2018-09-23T14:41:24.729Z,2.60
2018-09-23T14:43:53.569Z,1.43
2018-09-23T14:46:22.420Z,2.87
2018-09-23T14:48:51.343Z,1.67
2018-09-23T14:51:20.204Z,2.83
2018-09-23T14:53:49.914Z,2.17
2018-09-23T14:56:18.753Z,1.57
2018-09-23T14:58:48.940Z,1.10
2018-09-23T15:01:17.714Z,1.27
2018-09-23T15:03:46.605Z,2.10
2018-09-23T15:06:15.626Z,1.40
2018-09-23T15:08:44.548Z,1.17
2018-09-23T15:11:13.455Z,3.00
2018-09-23T15:13:42.256Z,1.23
2018-09-23T15:16:11.257Z,3.57
2018-09-23T15:18:40.269Z,1.67
2018-09-23T15:21:09.223Z,1.63
2018-09-23T15:23:38.187Z,1.37
2018-09-23T15:26:07.213Z,0.70
2018-09-23T15:28:36.137Z,3.40
2018-09-23T15:31:05.089Z,2.43
2018-09-23T15:33:34.213Z,1.87
2018-09-23T15:36:03.665Z,0.87
2018-09-23T15:38:32.633Z,2.10
2018-09-23T15:41:01.853Z,1.10
2018-09-23T15:43:30.840Z,2.73
2018-09-23T15:45:59.903Z,1.53
2018-09-23T15:48:28.868Z,3.83
2018-09-23T15:50:57.730Z,1.83
2018-09-23T15:53:26.803Z,1.20
2018-09-23T15:55:55.868Z,1.53
2018-09-23T15:58:24.983Z,2.33
2018-09-23T16:00:54.245Z,1.23
2018-09-23T16:03:23.049Z,0.97
2018-09-23T16:05:52.197Z,2.73
2018-09-23T16:08:21.036Z,3.23
2018-09-23T16:10:50.947Z,1.63
2018-09-23T16:13:20.378Z,1.40
2018-09-23T16:15:49.315Z,1.37
2018-09-23T16:18:18.608Z,3.27
2018-09-23T16:20:47.556Z,0.90
2018-09-23T16:23:17.734Z,7.90
2018-09-23T16:25:46.761Z,1.77
2018-09-23T16:28:16.160Z,2.17
2018-09-23T16:30:45.354Z,1.87
2018-09-23T16:33:14.333Z,1.10
2018-09-23T16:35:44.296Z,1.77
2018-09-23T16:38:13.189Z,1.30
2018-09-23T16:40:42.330Z,4.03
2018-09-23T16:43:11.310Z,2.47
2018-09-23T16:45:40.281Z,2.50
2018-09-23T16:48:09.379Z,4.23
2018-09-23T16:50:38.375Z,3.57
2018-09-23T16:53:07.373Z,3.43
2018-09-23T16:55:36.319Z,2.43
2018-09-23T16:58:05.348Z,3.60
2018-09-23T17:00:34.704Z,1.30
2018-09-23T17:03:03.676Z,0.80
2018-09-23T17:05:33.262Z,2.87
2018-09-23T17:08:02.446Z,6.60
2018-09-23T17:10:32.166Z,3.00
2018-09-23T17:13:01.296Z,2.97
2018-09-23T17:15:30.687Z,3.07
2018-09-23T17:18:01.148Z,5.00
2018-09-23T17:20:30.094Z,5.67
2018-09-23T17:22:59.176Z,1.60
2018-09-23T17:25:28.181Z,1.53
2018-09-23T17:27:58.014Z,1.70
2018-09-23T17:30:27.629Z,2.00
2018-09-23T17:32:56.603Z,3.83
2018-09-23T17:35:25.765Z,3.10
2018-09-23T17:37:54.764Z,1.93
2018-09-23T17:40:24.114Z,1.93
2018-09-23T17:42:52.974Z,3.93
2018-09-23T17:45:21.830Z,2.43
2018-09-23T17:47:50.693Z,1.77
2018-09-23T17:50:19.883Z,1.30
2018-09-23T17:52:49.564Z,2.23
2018-09-23T17:55:18.426Z,2.07
2018-09-23T17:57:47.214Z,1.17
2018-09-23T18:00:16.479Z,5.97
2018-09-23T18:02:45.317Z,1.60
2018-09-23T18:05:14.172Z,1.57
2018-09-23T18:07:43.033Z,0.93
2018-09-23T18:10:11.886Z,2.33
2018-09-23T18:12:41.142Z,1.80
2018-09-23T18:15:10.007Z,1.80
2018-09-23T18:17:38.976Z,1.23
2018-09-23T18:20:07.936Z,1.87
2018-09-23T18:22:37.188Z,3.53
2018-09-23T18:25:06.101Z,2.43
2018-09-23T18:27:35.687Z,3.00
2018-09-23T18:30:05.152Z,2.17
2018-09-23T18:32:34.220Z,5.63
2018-09-23T18:35:03.198Z,2.63
2018-09-23T18:37:33.024Z,3.43
2018-09-23T18:40:01.889Z,2.53
2018-09-23T18:42:30.847Z,4.87
2018-09-23T18:45:00.112Z,1.50
2018-09-23T18:47:29.014Z,2.07
2018-09-23T18:49:57.889Z,4.10
2018-09-23T18:52:26.753Z,7.63
2018-09-23T18:55:00.838Z,3.23
2018-09-23T18:57:29.690Z,2.83
2018-09-23T18:59:58.576Z,4.23
2018-09-23T19:02:28.418Z,3.30
2018-09-23T19:04:57.448Z,5.10
2018-09-23T19:07:26.316Z,2.73
2018-09-23T19:09:56.035Z,2.83
2018-09-23T19:12:26.717Z,2.30
2018-09-23T19:14:55.599Z,2.63
2018-09-23T19:17:24.432Z,2.60
2018-09-23T19:19:58.962Z,1.27
2018-09-23T19:22:33.833Z,3.47
2018-09-23T19:25:03.112Z,1.30
2018-09-23T19:27:32.521Z,7.83
2018-09-23T19:30:02.481Z,2.00
2018-09-23T19:32:33.731Z,4.00
2018-09-23T19:35:03.076Z,1.80
2018-09-23T19:37:31.896Z,3.17
2018-09-23T19:40:00.954Z,3.63
2018-09-23T19:42:29.850Z,1.97
2018-09-23T19:44:58.692Z,2.23
2018-09-23T19:47:27.506Z,2.60
2018-09-23T19:49:56.662Z,4.13
2018-09-23T19:52:25.485Z,3.23
2018-09-23T19:54:54.309Z,2.03
2018-09-23T19:57:23.132Z,2.37
2018-09-23T19:59:52.345Z,1.60
2018-09-23T20:02:21.293Z,2.83
2018-09-23T20:04:50.323Z,1.87
2018-09-23T20:07:19.182Z,2.03
2018-09-23T20:09:48.106Z,2.57
2018-09-23T20:12:17.161Z,3.37
2018-09-23T20:14:46.025Z,4.37
2018-09-23T20:17:14.855Z,1.90
2018-09-23T20:19:43.947Z,1.40
2018-09-23T20:22:13.511Z,2.77
2018-09-23T20:24:42.856Z,1.57
2018-09-23T20:27:12.027Z,2.17
2018-09-23T20:29:41.021Z,4.20
2018-09-23T20:32:10.343Z,4.17
2018-09-23T20:34:39.317Z,2.13
2018-09-23T20:37:08.806Z,2.73
2018-09-23T20:39:37.670Z,5.20
2018-09-23T20:42:06.542Z,3.30
2018-09-23T20:44:35.430Z,2.60
2018-09-23T20:47:04.280Z,2.37
2018-09-23T20:49:33.104Z,2.73
2018-09-23T20:52:01.971Z,2.20
2018-09-23T20:54:30.812Z,3.10
2018-09-23T20:56:59.578Z,3.30
2018-09-23T20:59:28.419Z,3.73
2018-09-23T21:01:57.287Z,3.23
2018-09-23T21:04:26.019Z,3.57
2018-09-23T21:06:54.893Z,2.47
2018-09-23T21:09:23.686Z,2.77
2018-09-23T21:11:52.555Z,3.63
2018-09-23T21:14:21.371Z,4.03
2018-09-23T21:16:50.228Z,4.43
2018-09-23T21:19:19.218Z,4.13
2018-09-23T21:21:48.053Z,3.27
2018-09-23T21:24:16.978Z,2.90
2018-09-23T21:26:45.858Z,3.77
2018-09-23T21:29:14.691Z,4.83
2018-09-23T21:31:43.481Z,2.07
2018-09-23T21:34:12.634Z,1.73
2018-09-23T21:36:41.636Z,1.50
2018-09-23T21:39:11.447Z,3.47
2018-09-23T21:41:40.304Z,3.20
2018-09-23T21:44:09.126Z,5.83
2018-09-23T21:46:37.961Z,3.57
2018-09-23T21:49:06.766Z,2.10
2018-09-23T21:51:35.578Z,2.17
2018-09-23T21:54:04.420Z,3.63
2018-09-23T21:56:33.223Z,4.60
2018-09-23T21:59:02.036Z,5.67
2018-09-23T22:01:30.840Z,6.67
2018-09-23T22:03:59.644Z,1.70
2018-09-23T22:06:28.436Z,1.77
2018-09-23T22:08:57.605Z,4.07
2018-09-23T22:11:26.496Z,2.90
2018-09-23T22:13:55.273Z,1.87
2018-09-23T22:16:24.112Z,5.60
2018-09-23T22:18:52.901Z,3.10
2018-09-23T22:21:21.716Z,2.53
2018-09-23T22:23:50.528Z,3.97
2018-09-23T22:26:19.320Z,2.77
2018-09-23T22:28:48.084Z,3.97
2018-09-23T22:31:16.938Z,2.00
2018-09-23T22:33:45.744Z,3.67
2018-09-23T22:36:15.183Z,2.80
2018-09-23T22:38:44.620Z,2.30
2018-09-23T22:41:13.784Z,2.97
2018-09-23T22:43:42.597Z,3.33
2018-09-23T22:46:11.558Z,3.57
2018-09-23T22:48:40.361Z,2.80
2018-09-23T22:51:09.137Z,4.77
2018-09-23T22:53:38.019Z,3.10
2018-09-23T22:56:06.916Z,4.23
2018-09-23T22:58:35.729Z,2.43
2018-09-23T23:01:04.600Z,1.90
2018-09-23T23:03:33.397Z,4.67
2018-09-23T23:06:02.180Z,2.93
2018-09-23T23:08:30.975Z,5.20
2018-09-23T23:10:59.760Z,3.70
2018-09-23T23:13:28.572Z,4.27
2018-09-23T23:15:57.384Z,2.00
2018-09-23T23:18:26.193Z,3.37
2018-09-23T23:20:54.981Z,3.53
2018-09-23T23:23:23.780Z,3.13
2018-09-23T23:25:52.596Z,3.03
2018-09-23T23:28:21.459Z,3.10
2018-09-23T23:30:50.882Z,6.40
2018-09-23T23:33:20.032Z,6.30
2018-09-23T23:35:48.844Z,1.83
2018-09-23T23:38:17.669Z,3.87
2018-09-23T23:40:46.465Z,3.10
2018-09-23T23:43:15.925Z,3.93
2018-09-23T23:45:44.805Z,3.33
2018-09-23T23:48:13.620Z,2.93
2018-09-23T23:50:42.430Z,3.67
2018-09-23T23:53:11.260Z,7.47
2018-09-23T23:55:40.017Z,3.10
2018-09-23T23:58:08.801Z,5.80
